createdAt,value
2023-04-13T00:01:01.747Z,3.86
2023-04-13T00:03:12.269Z,3.84
2023-04-13T00:05:17.643Z,3.85
2023-04-13T00:07:23.374Z,3.85
2023-04-13T00:09:31.156Z,3.86
2023-04-13T00:11:36.722Z,4.03
2023-04-13T00:13:47.414Z,3.96
2023-04-13T00:15:53.896Z,4.06
2023-04-13T00:17:59.148Z,4.07
2023-04-13T00:20:08.456Z,3.86
2023-04-13T00:22:14.006Z,3.80
2023-04-13T00:24:19.707Z,3.75
2023-04-13T00:26:25.283Z,3.67
2023-04-13T00:28:33.333Z,3.67
2023-04-13T00:30:41.805Z,3.68
2023-04-13T00:32:48.650Z,3.67
2023-04-13T00:34:53.766Z,3.65
2023-04-13T00:36:59.329Z,3.63
2023-04-13T00:39:04.338Z,3.73
2023-04-13T00:41:10.325Z,3.75
2023-04-13T00:43:15.390Z,3.82
2023-04-13T00:45:22.890Z,3.67
2023-04-13T00:47:34.728Z,3.40
2023-04-13T00:49:40.068Z,3.23
2023-04-13T00:51:46.708Z,3.13
2023-04-13T00:53:51.881Z,3.09
2023-04-13T00:55:57.288Z,3.11
2023-04-13T00:58:02.692Z,2.98
2023-04-13T01:00:10.844Z,2.98
2023-04-13T01:02:17.049Z,2.96
2023-04-13T01:04:25.743Z,2.85
2023-04-13T01:06:42.180Z,2.85
2023-04-13T01:08:54.931Z,2.88
2023-04-13T01:11:07.137Z,2.90
2023-04-13T01:13:22.901Z,3.04
2023-04-13T01:15:39.497Z,2.90
2023-04-13T01:17:52.547Z,3.06
2023-04-13T01:20:12.067Z,3.13
2023-04-13T01:22:18.842Z,2.89
2023-04-13T01:24:43.355Z,2.76
2023-04-13T01:27:00.111Z,2.59
2023-04-13T01:29:08.934Z,2.46
2023-04-13T01:31:15.822Z,2.55
2023-04-13T01:33:22.136Z,2.50
2023-04-13T01:35:29.483Z,2.37
2023-04-13T01:37:36.068Z,2.28
2023-04-13T01:39:41.336Z,2.18
2023-04-13T01:41:57.919Z,2.23
2023-04-13T01:44:03.758Z,2.25
2023-04-13T01:46:16.391Z,2.24
2023-04-13T01:48:38.298Z,2.31
2023-04-13T01:50:57.879Z,2.21
2023-04-13T01:53:26.930Z,2.24
2023-04-13T01:55:33.335Z,2.28
2023-04-13T01:57:41.074Z,2.46
2023-04-13T01:59:48.485Z,2.57
2023-04-13T02:01:59.581Z,2.61
2023-04-13T02:04:05.533Z,2.57
2023-04-13T02:06:11.757Z,2.53
2023-04-13T02:08:20.937Z,2.67
2023-04-13T02:10:26.910Z,2.72
2023-04-13T02:12:34.664Z,2.90
2023-04-13T02:14:39.697Z,2.99
2023-04-13T02:16:44.750Z,3.15
2023-04-13T02:18:54.910Z,3.30
2023-04-13T02:21:08.605Z,3.40
2023-04-13T02:23:15.117Z,3.44
2023-04-13T02:25:22.548Z,3.55
2023-04-13T02:27:28.969Z,3.69
2023-04-13T02:29:34.521Z,3.72
2023-04-13T02:31:45.368Z,3.79
2023-04-13T02:33:51.917Z,3.85
2023-04-13T02:36:00.223Z,3.86
2023-04-13T02:38:06.821Z,3.86
2023-04-13T02:40:13.148Z,3.90
2023-04-13T02:42:18.196Z,3.82
2023-04-13T02:44:23.908Z,3.82
2023-04-13T02:46:35.763Z,3.82
2023-04-13T02:48:46.182Z,3.89
2023-04-13T02:50:52.758Z,4.02
2023-04-13T02:53:04.201Z,4.16
2023-04-13T02:55:12.261Z,4.26
2023-04-13T02:57:34.384Z,4.33
2023-04-13T02:59:40.977Z,4.30
2023-04-13T03:01:48.506Z,4.25
2023-04-13T03:03:55.451Z,4.19
2023-04-13T03:06:04.465Z,4.17
2023-04-13T03:08:27.829Z,4.18
2023-04-13T03:10:57.503Z,4.09
2023-04-13T03:13:03.519Z,4.11
2023-04-13T03:15:11.825Z,4.14
2023-04-13T03:17:19.862Z,4.18
2023-04-13T03:19:25.741Z,3.99
2023-04-13T03:21:31.122Z,3.96
2023-04-13T03:23:55.796Z,4.05
2023-04-13T03:26:01.146Z,3.93
2023-04-13T03:28:06.330Z,4.02
2023-04-13T03:30:18.996Z,4.00
2023-04-13T03:32:32.020Z,3.87
2023-04-13T03:34:44.275Z,3.78
2023-04-13T03:36:53.124Z,3.67
2023-04-13T03:39:02.037Z,3.56
2023-04-13T03:41:12.777Z,3.58
2023-04-13T03:43:19.983Z,3.65
2023-04-13T03:45:33.811Z,3.75
2023-04-13T03:47:42.314Z,3.82
2023-04-13T03:49:48.472Z,3.95
2023-04-13T03:51:53.665Z,4.11
2023-04-13T03:54:02.094Z,4.17
2023-04-13T03:56:08.680Z,4.23
2023-04-13T03:58:14.453Z,4.31
2023-04-13T04:00:20.592Z,4.37
2023-04-13T04:02:39.534Z,4.48
2023-04-13T04:04:44.898Z,4.51
2023-04-13T04:06:50.009Z,4.54
2023-04-13T04:08:56.590Z,4.59
2023-04-13T04:11:12.957Z,4.65
2023-04-13T04:13:18.035Z,4.65
2023-04-13T04:15:27.168Z,4.72
2023-04-13T04:17:40.029Z,4.77
2023-04-13T04:19:45.414Z,4.88
2023-04-13T04:21:53.300Z,4.92
2023-04-13T04:24:00.919Z,4.93
2023-04-13T04:26:07.604Z,4.99
2023-04-13T04:28:23.903Z,5.05
2023-04-13T04:30:29.825Z,5.08
2023-04-13T04:32:36.709Z,5.11
2023-04-13T04:34:48.329Z,5.23
2023-04-13T04:36:58.007Z,5.22
2023-04-13T04:39:10.077Z,5.25
2023-04-13T04:41:24.005Z,5.29
2023-04-13T04:43:35.935Z,5.35
2023-04-13T04:45:43.736Z,5.36
2023-04-13T04:47:53.241Z,5.36
2023-04-13T04:50:03.615Z,5.45
2023-04-13T04:52:15.090Z,5.46
2023-04-13T04:54:21.076Z,5.48
2023-04-13T04:56:26.277Z,5.48
2023-04-13T04:58:35.232Z,5.51
2023-04-13T05:00:40.601Z,5.50
2023-04-13T05:02:50.957Z,5.51
2023-04-13T05:04:57.609Z,5.52
2023-04-13T05:07:03.380Z,5.54
2023-04-13T05:09:15.223Z,5.57
2023-04-13T05:11:26.018Z,5.56
2023-04-13T05:13:35.382Z,5.60
2023-04-13T05:15:54.466Z,5.62
2023-04-13T05:17:59.864Z,5.68
2023-04-13T05:20:09.562Z,5.69
2023-04-13T05:22:24.384Z,5.69
2023-04-13T05:24:36.412Z,5.75
2023-04-13T05:26:47.939Z,5.82
2023-04-13T05:29:01.404Z,5.80
2023-04-13T05:31:12.262Z,5.81
2023-04-13T05:33:21.351Z,5.83
2023-04-13T05:35:32.080Z,5.86
2023-04-13T05:37:40.324Z,5.87
2023-04-13T05:39:50.518Z,5.89
2023-04-13T05:41:59.309Z,5.88
2023-04-13T05:44:08.987Z,5.89
2023-04-13T05:46:16.148Z,5.92
2023-04-13T05:48:22.027Z,5.98
2023-04-13T05:50:31.109Z,5.93
2023-04-13T05:52:36.306Z,5.92
2023-04-13T05:54:41.659Z,5.93
2023-04-13T05:56:47.387Z,5.97
2023-04-13T05:58:52.535Z,5.99
2023-04-13T06:01:04.395Z,6.05
2023-04-13T06:03:11.144Z,6.09
2023-04-13T06:05:17.138Z,6.07
2023-04-13T06:07:22.506Z,6.08
2023-04-13T06:09:28.612Z,6.08
2023-04-13T06:11:33.934Z,6.09
2023-04-13T06:13:41.445Z,6.13
2023-04-13T06:15:46.501Z,6.13
2023-04-13T06:17:56.903Z,6.17
2023-04-13T06:20:02.313Z,6.20
2023-04-13T06:22:07.622Z,6.20
2023-04-13T06:24:17.730Z,6.22
2023-04-13T06:26:23.566Z,6.34
2023-04-13T06:28:33.415Z,6.36
2023-04-13T06:30:38.786Z,6.39
2023-04-13T06:32:48.883Z,6.48
2023-04-13T06:34:59.508Z,6.57
2023-04-13T06:37:09.872Z,6.68
2023-04-13T06:39:27.062Z,6.75
2023-04-13T06:41:37.366Z,6.83
2023-04-13T06:44:01.789Z,6.84
2023-04-13T06:46:11.793Z,6.88
2023-04-13T06:48:18.899Z,6.85
2023-04-13T06:50:29.364Z,6.87
2023-04-13T06:52:38.187Z,6.90
2023-04-13T06:54:43.237Z,6.90
2023-04-13T06:57:02.172Z,6.81
2023-04-13T06:59:08.517Z,6.78
2023-04-13T07:01:14.017Z,6.81
2023-04-13T07:03:19.890Z,6.77
2023-04-13T07:05:28.098Z,6.81
2023-04-13T07:07:38.920Z,6.81
2023-04-13T07:09:44.571Z,6.85
2023-04-13T07:11:49.929Z,7.00
2023-04-13T07:13:55.734Z,7.01
2023-04-13T07:16:04.029Z,7.05
2023-04-13T07:18:13.094Z,7.02
2023-04-13T07:20:18.854Z,7.02
2023-04-13T07:22:32.744Z,6.92
2023-04-13T07:24:38.689Z,6.98
2023-04-13T07:26:47.431Z,6.97
2023-04-13T07:28:52.789Z,6.98
2023-04-13T07:31:00.186Z,6.98
2023-04-13T07:33:05.523Z,7.04
2023-04-13T07:35:12.186Z,7.07
2023-04-13T07:37:18.943Z,7.25
2023-04-13T07:39:27.153Z,7.31
2023-04-13T07:41:33.518Z,7.38
2023-04-13T07:43:42.261Z,7.32
2023-04-13T07:45:49.474Z,7.37
2023-04-13T07:47:55.339Z,7.43
2023-04-13T07:50:00.697Z,7.43
2023-04-13T07:52:07.155Z,7.56
2023-04-13T07:54:16.481Z,7.64
2023-04-13T07:56:26.319Z,7.74
2023-04-13T07:58:32.068Z,7.78
2023-04-13T08:00:37.253Z,7.79
2023-04-13T08:02:44.372Z,7.90
2023-04-13T08:04:55.208Z,8.00
2023-04-13T08:07:07.422Z,8.00
2023-04-13T08:09:12.804Z,8.05
2023-04-13T08:11:19.514Z,8.05
2023-04-13T08:13:31.570Z,8.11
2023-04-13T08:15:37.119Z,8.30
2023-04-13T08:17:43.615Z,8.47
2023-04-13T08:19:48.722Z,8.63
2023-04-13T08:21:54.756Z,8.88
2023-04-13T08:23:59.897Z,9.08
2023-04-13T08:26:06.366Z,9.07
2023-04-13T08:28:11.553Z,9.23
2023-04-13T08:30:20.381Z,9.26
2023-04-13T08:32:34.892Z,9.41
2023-04-13T08:34:40.586Z,9.51
2023-04-13T08:36:46.289Z,9.68
2023-04-13T08:38:51.979Z,9.72
2023-04-13T08:40:59.286Z,10.06
2023-04-13T08:43:08.346Z,10.00
2023-04-13T08:45:14.820Z,9.93
2023-04-13T08:47:29.352Z,9.85
2023-04-13T08:49:35.962Z,9.70
2023-04-13T08:51:49.552Z,9.18
2023-04-13T08:53:56.234Z,9.05
2023-04-13T08:56:07.508Z,8.82
2023-04-13T08:58:16.505Z,9.09
2023-04-13T09:00:23.991Z,9.37
2023-04-13T09:02:49.308Z,9.32
2023-04-13T09:05:16.761Z,9.37
2023-04-13T09:07:34.916Z,9.08
2023-04-13T09:09:48.600Z,9.05
2023-04-13T09:11:54.055Z,9.08
2023-04-13T09:13:59.197Z,9.50
2023-04-13T09:16:05.530Z,9.70
2023-04-13T09:18:25.216Z,9.75
2023-04-13T09:20:37.094Z,9.75
2023-04-13T09:22:42.900Z,9.85
2023-04-13T09:24:48.728Z,10.20
2023-04-13T09:26:53.945Z,10.26
2023-04-13T09:28:59.991Z,10.48
2023-04-13T09:31:06.670Z,10.49
2023-04-13T09:33:16.350Z,10.46
2023-04-13T09:35:24.119Z,10.60
2023-04-13T09:37:31.035Z,10.90
2023-04-13T09:39:37.461Z,10.98
2023-04-13T09:41:46.861Z,10.86
2023-04-13T09:43:51.978Z,11.10
2023-04-13T09:45:57.032Z,10.94
2023-04-13T09:48:03.555Z,10.62
2023-04-13T09:50:19.646Z,10.68
2023-04-13T09:52:27.881Z,10.69
2023-04-13T09:54:33.101Z,10.57
2023-04-13T09:56:52.924Z,10.76
2023-04-13T09:58:58.855Z,10.77
2023-04-13T10:01:04.406Z,10.93
2023-04-13T10:03:14.110Z,11.11
2023-04-13T10:05:19.956Z,11.08
2023-04-13T10:07:30.875Z,10.66
2023-04-13T10:09:36.812Z,10.53
2023-04-13T10:11:49.506Z,10.89
2023-04-13T10:14:02.885Z,11.12
2023-04-13T10:16:30.340Z,10.82
2023-04-13T10:18:49.787Z,11.11
2023-04-13T10:20:56.015Z,11.08
2023-04-13T10:23:04.306Z,11.19
2023-04-13T10:25:16.206Z,11.27
2023-04-13T10:27:31.235Z,11.44
2023-04-13T10:29:36.500Z,11.50
2023-04-13T10:31:43.179Z,11.51
2023-04-13T10:33:51.689Z,11.03
2023-04-13T10:36:03.166Z,11.18
2023-04-13T10:38:11.698Z,11.18
2023-04-13T10:40:17.503Z,11.20
2023-04-13T10:42:22.521Z,10.96
2023-04-13T10:44:27.935Z,10.87
2023-04-13T10:46:34.398Z,10.93
2023-04-13T10:48:40.031Z,10.91
2023-04-13T10:50:45.099Z,11.26
2023-04-13T10:53:05.050Z,11.06
2023-04-13T10:55:14.821Z,11.71
2023-04-13T10:57:19.923Z,11.69
2023-04-13T10:59:25.402Z,11.48
2023-04-13T11:01:32.070Z,11.51
2023-04-13T11:03:38.190Z,11.64
2023-04-13T11:05:45.275Z,11.96
2023-04-13T11:07:55.056Z,12.28
2023-04-13T11:10:06.126Z,12.17
2023-04-13T11:12:15.246Z,12.26
2023-04-13T11:14:24.370Z,12.30
2023-04-13T11:16:29.512Z,12.12
2023-04-13T11:18:35.349Z,11.79
2023-04-13T11:20:42.266Z,11.26
2023-04-13T11:22:47.799Z,11.94
2023-04-13T11:24:54.353Z,11.86
2023-04-13T11:26:59.368Z,11.92
2023-04-13T11:29:07.492Z,12.26
2023-04-13T11:31:12.902Z,12.51
2023-04-13T11:33:27.794Z,12.66
2023-04-13T11:35:33.003Z,12.57
2023-04-13T11:37:41.798Z,12.47
2023-04-13T11:39:47.167Z,12.53
2023-04-13T11:41:52.435Z,12.76
2023-04-13T11:43:58.009Z,12.77
2023-04-13T11:46:06.248Z,12.67
2023-04-13T11:48:11.546Z,12.89
2023-04-13T11:50:17.801Z,12.92
2023-04-13T11:52:23.295Z,13.66
2023-04-13T11:54:28.869Z,13.72
2023-04-13T11:56:34.646Z,13.42
2023-04-13T11:58:42.784Z,13.93
2023-04-13T12:00:48.409Z,14.39
2023-04-13T12:03:02.270Z,13.46
2023-04-13T12:05:10.130Z,13.11
2023-04-13T12:07:16.643Z,12.84
2023-04-13T12:09:26.863Z,13.68
2023-04-13T12:11:46.725Z,14.80
2023-04-13T12:14:07.200Z,15.98
2023-04-13T12:17:01.739Z,15.96
2023-04-13T12:18:59.914Z,15.36
2023-04-13T12:21:06.022Z,16.03
2023-04-13T12:23:23.275Z,16.51
2023-04-13T12:25:35.544Z,15.54
2023-04-13T12:27:43.344Z,15.04
2023-04-13T12:29:49.133Z,14.30
2023-04-13T12:31:54.410Z,14.45
2023-04-13T12:34:02.124Z,14.91
2023-04-13T12:36:11.430Z,14.41
2023-04-13T12:38:16.613Z,14.19
2023-04-13T12:40:21.624Z,14.10
2023-04-13T12:42:26.611Z,13.84
2023-04-13T12:44:33.799Z,13.10
2023-04-13T12:46:39.902Z,13.06
2023-04-13T12:48:44.960Z,13.22
2023-04-13T12:50:52.790Z,13.28
2023-04-13T12:52:57.774Z,13.01
2023-04-13T12:55:03.119Z,13.17
2023-04-13T12:57:08.263Z,13.55
2023-04-13T12:59:14.111Z,13.79
2023-04-13T13:01:19.273Z,14.79
2023-04-13T13:03:24.663Z,14.53
2023-04-13T13:05:30.238Z,14.17
2023-04-13T13:07:37.927Z,13.83
2023-04-13T13:09:43.273Z,13.11
2023-04-13T13:11:48.343Z,12.80
2023-04-13T13:13:53.537Z,12.18
2023-04-13T13:15:58.639Z,11.75
2023-04-13T13:18:04.608Z,11.30
2023-04-13T13:20:12.232Z,10.97
2023-04-13T13:22:17.238Z,10.97
2023-04-13T13:24:25.106Z,11.18
2023-04-13T13:26:36.658Z,11.37
2023-04-13T13:28:45.230Z,11.53
2023-04-13T13:30:50.396Z,11.64
2023-04-13T13:32:55.620Z,11.89
2023-04-13T13:35:00.687Z,12.34
2023-04-13T13:37:05.982Z,13.12
2023-04-13T13:39:12.632Z,14.30
2023-04-13T13:41:20.463Z,15.58
2023-04-13T13:43:25.665Z,15.85
2023-04-13T13:45:30.767Z,15.57
2023-04-13T13:47:38.872Z,15.85
2023-04-13T13:49:45.652Z,15.67
2023-04-13T13:51:56.650Z,15.28
2023-04-13T13:54:04.573Z,15.24
2023-04-13T13:56:11.812Z,15.05
2023-04-13T13:58:19.758Z,14.69
2023-04-13T14:00:26.049Z,14.75
2023-04-13T14:02:31.218Z,14.43
2023-04-13T14:04:36.639Z,14.11
2023-04-13T14:06:41.810Z,13.70
2023-04-13T14:08:46.929Z,13.23
2023-04-13T14:10:52.161Z,13.04
2023-04-13T14:12:57.153Z,11.82
2023-04-13T14:15:04.995Z,11.06
2023-04-13T14:17:10.005Z,10.46
2023-04-13T14:19:15.138Z,9.56
2023-04-13T14:21:21.887Z,8.76
2023-04-13T14:23:26.972Z,8.36
2023-04-13T14:25:32.259Z,7.85
2023-04-13T14:27:37.797Z,7.73
2023-04-13T14:29:42.817Z,7.81
2023-04-13T14:31:50.638Z,7.70
2023-04-13T14:33:55.804Z,7.62
2023-04-13T14:36:01.238Z,7.54
2023-04-13T14:38:06.244Z,7.56
2023-04-13T14:40:17.452Z,7.61
2023-04-13T14:42:22.615Z,7.81
2023-04-13T14:44:27.740Z,7.85
2023-04-13T14:46:32.791Z,8.00
2023-04-13T14:48:40.504Z,8.14
2023-04-13T14:50:45.697Z,8.30
2023-04-13T14:52:50.891Z,8.14
2023-04-13T14:54:58.823Z,8.29
2023-04-13T14:57:04.846Z,8.31
2023-04-13T14:59:09.990Z,8.33
2023-04-13T15:01:22.225Z,8.36
2023-04-13T15:03:28.781Z,8.30
2023-04-13T15:05:39.908Z,8.35
2023-04-13T15:07:46.286Z,8.33
2023-04-13T15:09:51.336Z,8.18
2023-04-13T15:11:56.370Z,7.94
2023-04-13T15:14:03.825Z,7.72
2023-04-13T15:16:09.727Z,7.53
2023-04-13T15:18:14.888Z,7.52
2023-04-13T15:20:20.860Z,7.45
2023-04-13T15:22:28.470Z,7.61
2023-04-13T15:24:33.495Z,7.79
2023-04-13T15:26:42.515Z,8.15
2023-04-13T15:28:47.610Z,8.69
2023-04-13T15:30:53.792Z,9.09
2023-04-13T15:33:02.495Z,9.86
2023-04-13T15:35:08.766Z,10.60
2023-04-13T15:37:14.068Z,11.09
2023-04-13T15:39:21.694Z,11.49
2023-04-13T15:41:27.711Z,11.51
2023-04-13T15:43:32.789Z,11.56
2023-04-13T15:45:38.294Z,11.53
2023-04-13T15:47:44.014Z,11.71
2023-04-13T15:49:49.072Z,11.84
2023-04-13T15:51:54.343Z,11.71
2023-04-13T15:54:00.181Z,11.83
2023-04-13T15:56:11.632Z,12.03
2023-04-13T15:58:17.106Z,12.12
2023-04-13T16:00:22.968Z,12.52
2023-04-13T16:02:28.347Z,12.82
2023-04-13T16:04:33.825Z,12.88
2023-04-13T16:06:39.869Z,12.93
2023-04-13T16:08:45.206Z,13.13
2023-04-13T16:10:51.129Z,12.86
2023-04-13T16:12:58.946Z,12.93
2023-04-13T16:15:04.494Z,13.06
2023-04-13T16:17:09.940Z,12.67
2023-04-13T16:19:18.221Z,12.67
2023-04-13T16:21:23.813Z,12.88
2023-04-13T16:23:29.837Z,12.66
2023-04-13T16:25:35.685Z,12.72
2023-04-13T16:27:40.881Z,12.55
2023-04-13T16:29:48.463Z,12.98
2023-04-13T16:31:53.746Z,13.03
2023-04-13T16:34:06.907Z,13.72
2023-04-13T16:36:16.951Z,13.84
2023-04-13T16:38:22.017Z,13.72
2023-04-13T16:40:27.009Z,13.61
2023-04-13T16:42:32.013Z,13.38
2023-04-13T16:44:37.015Z,13.14
2023-04-13T16:46:44.677Z,13.51
2023-04-13T16:48:49.698Z,13.56
2023-04-13T16:51:01.121Z,13.32
2023-04-13T16:53:06.424Z,13.55
2023-04-13T16:55:15.379Z,13.96
2023-04-13T16:57:20.776Z,13.59
2023-04-13T16:59:25.913Z,13.76
2023-04-13T17:01:31.003Z,13.95
2023-04-13T17:03:39.392Z,13.80
2023-04-13T17:05:44.465Z,13.47
2023-04-13T17:07:50.376Z,13.17
2023-04-13T17:09:55.463Z,12.53
2023-04-13T17:12:00.488Z,12.23
2023-04-13T17:14:05.545Z,11.87
2023-04-13T17:16:12.078Z,11.50
2023-04-13T17:18:18.342Z,11.17
2023-04-13T17:20:26.660Z,11.00
2023-04-13T17:22:32.096Z,10.58
2023-04-13T17:24:37.218Z,10.35
2023-04-13T17:26:42.225Z,10.08
2023-04-13T17:28:47.396Z,9.82
2023-04-13T17:30:52.504Z,9.46
2023-04-13T17:32:57.958Z,9.24
2023-04-13T17:35:03.160Z,9.10
2023-04-13T17:37:10.744Z,8.96
2023-04-13T17:39:15.936Z,8.81
2023-04-13T17:41:21.044Z,8.65
2023-04-13T17:43:26.119Z,8.43
2023-04-13T17:45:31.317Z,8.28
2023-04-13T17:47:36.436Z,8.18
2023-04-13T17:49:41.526Z,8.07
2023-04-13T17:51:50.007Z,7.92
2023-04-13T17:53:57.571Z,7.83
2023-04-13T17:56:02.568Z,7.68
2023-04-13T17:58:08.151Z,7.47
2023-04-13T18:00:16.036Z,7.18
2023-04-13T18:02:21.636Z,7.03
2023-04-13T18:04:26.980Z,6.86
2023-04-13T18:06:32.386Z,6.68
2023-04-13T18:08:37.522Z,6.44
2023-04-13T18:10:45.203Z,6.29
2023-04-13T18:12:50.386Z,6.10
2023-04-13T18:14:55.368Z,5.97
2023-04-13T18:17:00.435Z,5.91
2023-04-13T18:19:05.493Z,5.89
2023-04-13T18:21:10.833Z,5.56
2023-04-13T18:23:15.842Z,5.45
2023-04-13T18:25:20.860Z,5.34
2023-04-13T18:27:28.510Z,5.21
2023-04-13T18:29:33.709Z,5.10
2023-04-13T18:31:39.380Z,4.92
2023-04-13T18:33:44.964Z,4.92
2023-04-13T18:35:50.579Z,4.95
2023-04-13T18:37:55.824Z,4.83
2023-04-13T18:40:00.834Z,4.71
2023-04-13T18:42:07.762Z,4.66
2023-04-13T18:44:15.866Z,4.58
2023-04-13T18:46:20.993Z,4.51
2023-04-13T18:48:26.042Z,4.31
2023-04-13T18:50:31.636Z,4.23
2023-04-13T18:52:36.851Z,4.27
2023-04-13T18:54:41.840Z,4.16
2023-04-13T18:56:46.834Z,4.11
2023-04-13T18:58:52.232Z,3.88
2023-04-13T19:00:59.845Z,3.74
2023-04-13T19:03:04.954Z,3.80
2023-04-13T19:05:13.405Z,3.79
2023-04-13T19:07:18.609Z,3.72
2023-04-13T19:09:23.616Z,3.60
2023-04-13T19:11:29.221Z,3.47
2023-04-13T19:13:34.230Z,3.43
2023-04-13T19:15:40.130Z,3.50
2023-04-13T19:17:50.446Z,3.44
2023-04-13T19:19:55.793Z,3.30
2023-04-13T19:22:00.785Z,3.28
2023-04-13T19:24:06.546Z,3.25
2023-04-13T19:26:11.936Z,3.22
2023-04-13T19:28:16.993Z,3.08
2023-04-13T19:30:22.582Z,3.02
2023-04-13T19:32:27.830Z,3.04
2023-04-13T19:34:35.745Z,2.99
2023-04-13T19:36:41.973Z,3.03
2023-04-13T19:38:47.269Z,3.06
2023-04-13T19:40:52.553Z,3.08
2023-04-13T19:42:57.955Z,3.05
2023-04-13T19:45:02.997Z,3.17
2023-04-13T19:47:08.106Z,3.11
2023-04-13T19:49:13.686Z,3.21
2023-04-13T19:51:21.738Z,3.18
2023-04-13T19:53:26.735Z,3.12
2023-04-13T19:55:31.984Z,3.19
2023-04-13T19:57:40.426Z,3.16
2023-04-13T19:59:45.693Z,3.06
2023-04-13T20:01:51.143Z,3.04
2023-04-13T20:03:56.408Z,2.97
2023-04-13T20:06:03.024Z,2.92
2023-04-13T20:08:10.642Z,2.97
2023-04-13T20:10:15.864Z,2.99
2023-04-13T20:12:21.214Z,2.99
2023-04-13T20:14:26.515Z,3.09
2023-04-13T20:16:31.647Z,3.06
2023-04-13T20:18:36.870Z,3.00
2023-04-13T20:20:42.505Z,3.01
2023-04-13T20:22:47.661Z,2.98
2023-04-13T20:24:55.281Z,3.03
2023-04-13T20:27:00.703Z,3.02
2023-04-13T20:29:07.797Z,3.00
2023-04-13T20:31:13.061Z,2.86
2023-04-13T20:33:18.202Z,2.80
2023-04-13T20:35:24.050Z,2.68
2023-04-13T20:37:29.311Z,2.60
2023-04-13T20:39:34.336Z,2.80
2023-04-13T20:41:42.167Z,2.83
2023-04-13T20:43:49.926Z,2.75
2023-04-13T20:45:57.508Z,2.75
2023-04-13T20:48:48.371Z,2.68
2023-04-13T20:50:28.514Z,2.51
2023-04-13T20:52:34.152Z,2.58
2023-04-13T20:54:39.175Z,2.59
2023-04-13T20:56:47.533Z,2.52
2023-04-13T20:58:56.144Z,2.37
2023-04-13T21:01:01.509Z,2.40
2023-04-13T21:03:09.360Z,2.41
2023-04-13T21:05:14.726Z,2.36
2023-04-13T21:07:19.833Z,2.46
2023-04-13T21:09:24.838Z,2.40
2023-04-13T21:11:30.465Z,2.35
2023-04-13T21:13:38.396Z,2.30
2023-04-13T21:15:43.416Z,2.34
2023-04-13T21:17:49.308Z,2.33
2023-04-13T21:19:54.519Z,2.44
2023-04-13T21:22:00.084Z,2.34
2023-04-13T21:24:05.570Z,2.31
2023-04-13T21:26:10.996Z,2.27
2023-04-13T21:28:16.257Z,2.19
2023-04-13T21:30:23.865Z,2.19
2023-04-13T21:32:29.756Z,2.24
2023-04-13T21:34:35.060Z,2.32
2023-04-13T21:38:48.314Z,2.28
2023-04-13T21:40:53.407Z,2.19
2023-04-13T21:42:58.405Z,2.22
2023-04-13T21:45:03.476Z,2.15
2023-04-13T21:47:11.084Z,2.26
2023-04-13T21:49:16.281Z,2.24
2023-04-13T21:51:21.355Z,2.37
2023-04-13T21:53:26.468Z,2.23
2023-04-13T21:55:31.779Z,2.09
2023-04-13T21:57:36.769Z,2.02
2023-04-13T21:59:41.782Z,2.10
2023-04-13T22:01:47.025Z,2.10
2023-04-13T22:03:55.583Z,2.09
2023-04-13T22:06:01.278Z,2.01
2023-04-13T22:08:06.322Z,2.06
2023-04-13T22:10:13.025Z,2.21
2023-04-13T22:12:18.283Z,2.24
2023-04-13T22:14:26.240Z,2.02
2023-04-13T22:16:31.339Z,2.06
2023-04-13T22:18:36.891Z,2.10
2023-04-13T22:20:44.882Z,2.13
2023-04-13T22:22:49.890Z,1.97
2023-04-13T22:24:55.785Z,2.08
2023-04-13T22:27:01.203Z,2.09
2023-04-13T22:29:07.236Z,2.04
2023-04-13T22:31:14.655Z,1.85
2023-04-13T22:33:19.703Z,1.76
2023-04-13T22:35:24.752Z,1.70
2023-04-13T22:37:35.579Z,1.70
2023-04-13T22:39:40.655Z,1.74
2023-04-13T22:41:45.656Z,1.62
2023-04-13T22:43:50.750Z,1.50
2023-04-13T22:46:02.558Z,1.53
2023-04-13T22:48:08.591Z,1.49
2023-04-13T22:50:14.702Z,1.43
2023-04-13T22:52:21.142Z,1.43
2023-04-13T22:54:29.083Z,1.46
2023-04-13T22:56:34.225Z,1.47
2023-04-13T22:58:39.219Z,1.58
2023-04-13T23:00:44.742Z,1.75
2023-04-13T23:02:53.033Z,1.90
2023-04-13T23:04:58.595Z,2.11
2023-04-13T23:07:03.722Z,2.12
2023-04-13T23:09:08.736Z,2.07
2023-04-13T23:11:16.670Z,2.14
2023-04-13T23:13:21.938Z,2.25
2023-04-13T23:15:27.240Z,2.31
2023-04-13T23:17:32.319Z,2.35
2023-04-13T23:19:37.665Z,2.44
2023-04-13T23:21:44.178Z,2.41
2023-04-13T23:23:49.453Z,2.39
2023-04-13T23:25:55.203Z,2.36
2023-04-13T23:28:02.824Z,2.34
2023-04-13T23:30:10.687Z,2.31
2023-04-13T23:32:16.072Z,2.32
2023-04-13T23:34:21.141Z,2.22
2023-04-13T23:36:26.561Z,2.13
2023-04-13T23:38:31.918Z,2.13
2023-04-13T23:40:37.595Z,2.07
2023-04-13T23:42:42.621Z,2.04
2023-04-13T23:44:50.655Z,1.98
2023-04-13T23:46:55.751Z,1.97
2023-04-13T23:49:01.150Z,1.95
2023-04-13T23:51:07.388Z,1.89
2023-04-13T23:53:12.428Z,1.82
2023-04-13T23:55:17.672Z,1.95
2023-04-13T23:57:22.685Z,1.84
2023-04-13T23:59:27.794Z,1.86
